sensor_id;sensor_type;location;lat;lon;timestamp;P1;durP1;ratioP1;P2;durP2;ratioP2
59006;SDS011;44792;52.760;6.726;2023-08-07T00:02:04;8.65;;;5.28;;
59006;SDS011;44792;52.760;6.726;2023-08-07T00:04:32;7.00;;;4.80;;
59006;SDS011;44792;52.760;6.726;2023-08-07T00:06:57;8.57;;;4.70;;
59006;SDS011;44792;52.760;6.726;2023-08-07T00:09:23;6.50;;;5.10;;
59006;SDS011;44792;52.760;6.726;2023-08-07T00:11:49;8.20;;;4.80;;
59006;SDS011;44792;52.760;6.726;2023-08-07T00:14:15;6.18;;;4.80;;
59006;SDS011;44792;52.760;6.726;2023-08-07T00:16:41;6.30;;;4.70;;
59006;SDS011;44792;52.760;6.726;2023-08-07T00:19:07;6.63;;;4.85;;
59006;SDS011;44792;52.760;6.726;2023-08-07T00:21:32;6.75;;;4.38;;
59006;SDS011;44792;52.760;6.726;2023-08-07T00:24:03;5.85;;;4.55;;
59006;SDS011;44792;52.760;6.726;2023-08-07T00:26:29;11.52;;;5.03;;
59006;SDS011;44792;52.760;6.726;2023-08-07T00:28:57;6.93;;;4.60;;
59006;SDS011;44792;52.760;6.726;2023-08-07T00:31:23;6.68;;;4.72;;
59006;SDS011;44792;52.760;6.726;2023-08-07T00:33:48;6.07;;;4.13;;
59006;SDS011;44792;52.760;6.726;2023-08-07T00:36:17;7.63;;;4.20;;
59006;SDS011;44792;52.760;6.726;2023-08-07T00:38:42;8.43;;;4.20;;
59006;SDS011;44792;52.760;6.726;2023-08-07T00:41:08;5.47;;;4.20;;
59006;SDS011;44792;52.760;6.726;2023-08-07T00:43:35;5.90;;;4.30;;
59006;SDS011;44792;52.760;6.726;2023-08-07T00:46:00;6.05;;;4.40;;
59006;SDS011;44792;52.760;6.726;2023-08-07T00:48:27;6.50;;;4.25;;
59006;SDS011;44792;52.760;6.726;2023-08-07T00:50:54;5.05;;;3.83;;
59006;SDS011;44792;52.760;6.726;2023-08-07T00:53:21;7.47;;;4.55;;
59006;SDS011;44792;52.760;6.726;2023-08-07T00:55:47;7.53;;;3.80;;
59006;SDS011;44792;52.760;6.726;2023-08-07T00:58:13;5.38;;;3.72;;
59006;SDS011;44792;52.760;6.726;2023-08-07T01:00:42;5.35;;;3.10;;
59006;SDS011;44792;52.760;6.726;2023-08-07T01:03:08;6.18;;;3.83;;
59006;SDS011;44792;52.760;6.726;2023-08-07T01:05:35;8.82;;;3.28;;
59006;SDS011;44792;52.760;6.726;2023-08-07T01:08:03;4.95;;;3.47;;
59006;SDS011;44792;52.760;6.726;2023-08-07T01:10:39;4.93;;;3.53;;
59006;SDS011;44792;52.760;6.726;2023-08-07T01:16:21;4.10;;;3.45;;
59006;SDS011;44792;52.760;6.726;2023-08-07T01:18:53;7.18;;;3.72;;
59006;SDS011;44792;52.760;6.726;2023-08-07T01:21:21;5.97;;;3.42;;
59006;SDS011;44792;52.760;6.726;2023-08-07T01:23:47;4.80;;;3.40;;
59006;SDS011;44792;52.760;6.726;2023-08-07T01:26:13;6.47;;;3.65;;
59006;SDS011;44792;52.760;6.726;2023-08-07T01:28:57;6.72;;;3.50;;
59006;SDS011;44792;52.760;6.726;2023-08-07T01:31:31;8.05;;;3.30;;
59006;SDS011;44792;52.760;6.726;2023-08-07T01:34:06;9.10;;;3.20;;
59006;SDS011;44792;52.760;6.726;2023-08-07T01:36:35;5.72;;;3.15;;
59006;SDS011;44792;52.760;6.726;2023-08-07T01:39:03;4.25;;;3.33;;
59006;SDS011;44792;52.760;6.726;2023-08-07T01:41:32;11.23;;;3.40;;
59006;SDS011;44792;52.760;6.726;2023-08-07T01:43:58;4.07;;;3.03;;
59006;SDS011;44792;52.760;6.726;2023-08-07T01:46:24;8.63;;;3.53;;
59006;SDS011;44792;52.760;6.726;2023-08-07T01:48:50;7.75;;;3.30;;
59006;SDS011;44792;52.760;6.726;2023-08-07T01:51:16;4.63;;;2.92;;
59006;SDS011;44792;52.760;6.726;2023-08-07T01:53:41;5.05;;;2.60;;
59006;SDS011;44792;52.760;6.726;2023-08-07T01:56:07;6.10;;;3.17;;
59006;SDS011;44792;52.760;6.726;2023-08-07T01:58:33;5.85;;;2.88;;
59006;SDS011;44792;52.760;6.726;2023-08-07T02:00:59;7.43;;;2.72;;
59006;SDS011;44792;52.760;6.726;2023-08-07T02:03:24;6.75;;;2.65;;
59006;SDS011;44792;52.760;6.726;2023-08-07T02:05:50;6.95;;;2.45;;
59006;SDS011;44792;52.760;6.726;2023-08-07T02:08:16;7.13;;;2.58;;
59006;SDS011;44792;52.760;6.726;2023-08-07T02:10:42;7.15;;;2.53;;
59006;SDS011;44792;52.760;6.726;2023-08-07T02:13:08;11.48;;;2.58;;
59006;SDS011;44792;52.760;6.726;2023-08-07T02:15:34;6.10;;;2.25;;
59006;SDS011;44792;52.760;6.726;2023-08-07T02:18:00;10.45;;;2.72;;
59006;SDS011;44792;52.760;6.726;2023-08-07T02:20:26;6.00;;;2.38;;
59006;SDS011;44792;52.760;6.726;2023-08-07T02:22:51;5.13;;;2.28;;
59006;SDS011;44792;52.760;6.726;2023-08-07T02:25:17;6.90;;;2.17;;
59006;SDS011;44792;52.760;6.726;2023-08-07T02:27:43;9.05;;;3.53;;
59006;SDS011;44792;52.760;6.726;2023-08-07T02:30:08;7.78;;;2.15;;
59006;SDS011;44792;52.760;6.726;2023-08-07T02:32:34;5.60;;;1.63;;
59006;SDS011;44792;52.760;6.726;2023-08-07T02:35:00;3.08;;;1.55;;
59006;SDS011;44792;52.760;6.726;2023-08-07T02:37:26;10.10;;;2.00;;
59006;SDS011;44792;52.760;6.726;2023-08-07T02:39:52;11.63;;;2.20;;
59006;SDS011;44792;52.760;6.726;2023-08-07T02:42:18;13.38;;;2.28;;
59006;SDS011;44792;52.760;6.726;2023-08-07T02:44:44;11.57;;;2.78;;
59006;SDS011;44792;52.760;6.726;2023-08-07T02:47:10;5.97;;;2.15;;
59006;SDS011;44792;52.760;6.726;2023-08-07T02:49:36;12.80;;;2.85;;
59006;SDS011;44792;52.760;6.726;2023-08-07T02:52:02;6.25;;;2.00;;
59006;SDS011;44792;52.760;6.726;2023-08-07T02:54:27;7.45;;;2.00;;
59006;SDS011;44792;52.760;6.726;2023-08-07T02:56:53;6.75;;;2.05;;
59006;SDS011;44792;52.760;6.726;2023-08-07T02:59:19;12.57;;;2.00;;
59006;SDS011;44792;52.760;6.726;2023-08-07T03:01:45;10.02;;;2.38;;
59006;SDS011;44792;52.760;6.726;2023-08-07T03:04:10;7.95;;;2.20;;
59006;SDS011;44792;52.760;6.726;2023-08-07T03:06:36;9.43;;;2.38;;
59006;SDS011;44792;52.760;6.726;2023-08-07T03:09:02;6.47;;;1.92;;
59006;SDS011;44792;52.760;6.726;2023-08-07T03:11:28;7.47;;;2.10;;
59006;SDS011;44792;52.760;6.726;2023-08-07T03:13:54;6.80;;;1.98;;
59006;SDS011;44792;52.760;6.726;2023-08-07T03:16:20;8.68;;;1.75;;
59006;SDS011;44792;52.760;6.726;2023-08-07T03:18:46;5.53;;;1.83;;
59006;SDS011;44792;52.760;6.726;2023-08-07T03:21:12;6.30;;;1.92;;
59006;SDS011;44792;52.760;6.726;2023-08-07T03:23:37;8.20;;;2.42;;
59006;SDS011;44792;52.760;6.726;2023-08-07T03:26:07;8.18;;;1.50;;
59006;SDS011;44792;52.760;6.726;2023-08-07T03:28:35;4.55;;;1.60;;
59006;SDS011;44792;52.760;6.726;2023-08-07T03:31:02;9.38;;;2.50;;
59006;SDS011;44792;52.760;6.726;2023-08-07T03:33:28;11.48;;;2.00;;
59006;SDS011;44792;52.760;6.726;2023-08-07T03:35:53;12.48;;;2.13;;
59006;SDS011;44792;52.760;6.726;2023-08-07T03:38:19;7.35;;;1.50;;
59006;SDS011;44792;52.760;6.726;2023-08-07T03:40:45;10.98;;;2.15;;
59006;SDS011;44792;52.760;6.726;2023-08-07T03:43:11;11.18;;;2.47;;
59006;SDS011;44792;52.760;6.726;2023-08-07T03:45:38;7.72;;;1.83;;
59006;SDS011;44792;52.760;6.726;2023-08-07T03:48:04;9.95;;;1.90;;
59006;SDS011;44792;52.760;6.726;2023-08-07T03:50:30;10.48;;;2.50;;
59006;SDS011;44792;52.760;6.726;2023-08-07T03:52:56;11.82;;;1.67;;
59006;SDS011;44792;52.760;6.726;2023-08-07T03:55:21;10.45;;;2.30;;
59006;SDS011;44792;52.760;6.726;2023-08-07T03:57:47;15.02;;;1.77;;
59006;SDS011;44792;52.760;6.726;2023-08-07T04:00:13;6.28;;;2.00;;
59006;SDS011;44792;52.760;6.726;2023-08-07T04:02:39;8.05;;;2.30;;
59006;SDS011;44792;52.760;6.726;2023-08-07T04:05:06;7.20;;;1.80;;
59006;SDS011;44792;52.760;6.726;2023-08-07T04:07:31;7.57;;;2.20;;
59006;SDS011;44792;52.760;6.726;2023-08-07T04:09:58;13.90;;;2.78;;
59006;SDS011;44792;52.760;6.726;2023-08-07T04:12:23;5.20;;;2.30;;
59006;SDS011;44792;52.760;6.726;2023-08-07T04:14:49;6.40;;;1.90;;
59006;SDS011;44792;52.760;6.726;2023-08-07T04:17:15;9.05;;;2.03;;
59006;SDS011;44792;52.760;6.726;2023-08-07T04:19:41;9.80;;;2.30;;
59006;SDS011;44792;52.760;6.726;2023-08-07T04:22:06;5.35;;;1.83;;
59006;SDS011;44792;52.760;6.726;2023-08-07T04:24:32;5.88;;;1.65;;
59006;SDS011;44792;52.760;6.726;2023-08-07T04:26:58;7.95;;;1.73;;
59006;SDS011;44792;52.760;6.726;2023-08-07T04:29:24;5.38;;;1.60;;
59006;SDS011;44792;52.760;6.726;2023-08-07T04:31:50;3.67;;;1.60;;
59006;SDS011;44792;52.760;6.726;2023-08-07T04:34:16;9.07;;;1.95;;
59006;SDS011;44792;52.760;6.726;2023-08-07T04:36:41;10.88;;;2.10;;
59006;SDS011;44792;52.760;6.726;2023-08-07T04:39:07;7.28;;;1.73;;
59006;SDS011;44792;52.760;6.726;2023-08-07T04:41:33;5.50;;;2.00;;
59006;SDS011;44792;52.760;6.726;2023-08-07T04:43:59;8.07;;;2.05;;
59006;SDS011;44792;52.760;6.726;2023-08-07T04:46:25;6.07;;;1.92;;
59006;SDS011;44792;52.760;6.726;2023-08-07T04:48:51;8.90;;;2.50;;
59006;SDS011;44792;52.760;6.726;2023-08-07T04:51:17;4.97;;;2.25;;
59006;SDS011;44792;52.760;6.726;2023-08-07T04:53:43;6.88;;;1.75;;
59006;SDS011;44792;52.760;6.726;2023-08-07T04:56:09;6.75;;;2.17;;
59006;SDS011;44792;52.760;6.726;2023-08-07T04:58:34;11.82;;;2.28;;
59006;SDS011;44792;52.760;6.726;2023-08-07T05:01:00;4.05;;;1.70;;
59006;SDS011;44792;52.760;6.726;2023-08-07T05:03:26;6.13;;;2.22;;
59006;SDS011;44792;52.760;6.726;2023-08-07T05:05:59;12.30;;;2.40;;
59006;SDS011;44792;52.760;6.726;2023-08-07T05:08:25;5.70;;;2.05;;
59006;SDS011;44792;52.760;6.726;2023-08-07T05:10:51;9.35;;;2.50;;
59006;SDS011;44792;52.760;6.726;2023-08-07T05:13:17;7.63;;;2.15;;
59006;SDS011;44792;52.760;6.726;2023-08-07T05:15:42;9.45;;;2.00;;
59006;SDS011;44792;52.760;6.726;2023-08-07T05:18:08;6.63;;;2.08;;
59006;SDS011;44792;52.760;6.726;2023-08-07T05:20:34;7.82;;;2.40;;
59006;SDS011;44792;52.760;6.726;2023-08-07T05:23:00;7.30;;;2.00;;
59006;SDS011;44792;52.760;6.726;2023-08-07T05:25:25;8.20;;;2.40;;
59006;SDS011;44792;52.760;6.726;2023-08-07T05:27:51;9.65;;;2.28;;
59006;SDS011;44792;52.760;6.726;2023-08-07T05:30:17;7.75;;;2.42;;
59006;SDS011;44792;52.760;6.726;2023-08-07T05:32:43;6.50;;;2.05;;
59006;SDS011;44792;52.760;6.726;2023-08-07T05:35:08;7.85;;;2.50;;
59006;SDS011;44792;52.760;6.726;2023-08-07T05:37:34;13.35;;;2.75;;
59006;SDS011;44792;52.760;6.726;2023-08-07T05:40:00;8.88;;;2.25;;
59006;SDS011;44792;52.760;6.726;2023-08-07T05:42:27;8.13;;;2.33;;
59006;SDS011;44792;52.760;6.726;2023-08-07T05:44:53;9.75;;;2.55;;
59006;SDS011;44792;52.760;6.726;2023-08-07T05:47:19;9.73;;;2.30;;
59006;SDS011;44792;52.760;6.726;2023-08-07T05:49:44;8.18;;;2.47;;
59006;SDS011;44792;52.760;6.726;2023-08-07T05:52:10;3.97;;;2.03;;
59006;SDS011;44792;52.760;6.726;2023-08-07T05:54:36;7.03;;;2.28;;
59006;SDS011;44792;52.760;6.726;2023-08-07T05:57:02;6.90;;;2.70;;
59006;SDS011;44792;52.760;6.726;2023-08-07T05:59:28;5.60;;;1.95;;
59006;SDS011;44792;52.760;6.726;2023-08-07T06:01:53;7.75;;;2.03;;
59006;SDS011;44792;52.760;6.726;2023-08-07T06:04:20;8.48;;;2.45;;
59006;SDS011;44792;52.760;6.726;2023-08-07T06:06:47;8.40;;;2.22;;
59006;SDS011;44792;52.760;6.726;2023-08-07T06:09:13;9.75;;;2.33;;
59006;SDS011;44792;52.760;6.726;2023-08-07T06:11:40;7.47;;;2.47;;
59006;SDS011;44792;52.760;6.726;2023-08-07T06:14:06;7.68;;;2.30;;
59006;SDS011;44792;52.760;6.726;2023-08-07T06:16:32;7.25;;;2.40;;
59006;SDS011;44792;52.760;6.726;2023-08-07T06:18:58;13.10;;;2.65;;
59006;SDS011;44792;52.760;6.726;2023-08-07T06:21:24;8.65;;;2.22;;
59006;SDS011;44792;52.760;6.726;2023-08-07T06:23:51;12.15;;;2.85;;
59006;SDS011;44792;52.760;6.726;2023-08-07T06:26:17;6.32;;;2.40;;
59006;SDS011;44792;52.760;6.726;2023-08-07T06:28:44;10.38;;;2.65;;
59006;SDS011;44792;52.760;6.726;2023-08-07T06:31:10;11.57;;;2.78;;
59006;SDS011;44792;52.760;6.726;2023-08-07T06:33:36;15.90;;;4.88;;
59006;SDS011;44792;52.760;6.726;2023-08-07T06:36:03;11.35;;;3.13;;
59006;SDS011;44792;52.760;6.726;2023-08-07T06:38:29;12.45;;;2.83;;
59006;SDS011;44792;52.760;6.726;2023-08-07T06:40:56;13.32;;;3.00;;
59006;SDS011;44792;52.760;6.726;2023-08-07T06:43:22;10.48;;;3.17;;
59006;SDS011;44792;52.760;6.726;2023-08-07T06:45:50;16.58;;;3.70;;
59006;SDS011;44792;52.760;6.726;2023-08-07T06:48:17;5.43;;;2.83;;
59006;SDS011;44792;52.760;6.726;2023-08-07T06:50:43;16.77;;;3.17;;
59006;SDS011;44792;52.760;6.726;2023-08-07T06:53:09;8.95;;;2.38;;
59006;SDS011;44792;52.760;6.726;2023-08-07T06:55:35;8.68;;;2.13;;
59006;SDS011;44792;52.760;6.726;2023-08-07T06:58:01;4.25;;;1.80;;
59006;SDS011;44792;52.760;6.726;2023-08-07T07:00:26;5.97;;;1.70;;
59006;SDS011;44792;52.760;6.726;2023-08-07T07:02:52;6.80;;;1.67;;
59006;SDS011;44792;52.760;6.726;2023-08-07T07:05:18;4.72;;;1.80;;
59006;SDS011;44792;52.760;6.726;2023-08-07T07:07:44;5.22;;;1.85;;
59006;SDS011;44792;52.760;6.726;2023-08-07T07:10:10;4.88;;;1.90;;
59006;SDS011;44792;52.760;6.726;2023-08-07T07:12:36;7.28;;;1.90;;
59006;SDS011;44792;52.760;6.726;2023-08-07T07:15:02;8.88;;;2.17;;
59006;SDS011;44792;52.760;6.726;2023-08-07T07:17:28;9.75;;;1.95;;
59006;SDS011;44792;52.760;6.726;2023-08-07T07:19:53;9.38;;;2.20;;
59006;SDS011;44792;52.760;6.726;2023-08-07T07:22:20;12.63;;;2.70;;
59006;SDS011;44792;52.760;6.726;2023-08-07T07:24:46;7.88;;;2.40;;
59006;SDS011;44792;52.760;6.726;2023-08-07T07:27:11;9.98;;;3.00;;
59006;SDS011;44792;52.760;6.726;2023-08-07T07:29:37;7.72;;;2.22;;
59006;SDS011;44792;52.760;6.726;2023-08-07T07:32:03;11.90;;;3.17;;
59006;SDS011;44792;52.760;6.726;2023-08-07T07:34:29;14.02;;;2.88;;
59006;SDS011;44792;52.760;6.726;2023-08-07T07:36:55;8.00;;;2.63;;
59006;SDS011;44792;52.760;6.726;2023-08-07T07:39:20;9.55;;;2.80;;
59006;SDS011;44792;52.760;6.726;2023-08-07T07:41:46;10.02;;;3.03;;
59006;SDS011;44792;52.760;6.726;2023-08-07T07:44:14;8.70;;;2.47;;
59006;SDS011;44792;52.760;6.726;2023-08-07T07:46:40;14.93;;;2.80;;
59006;SDS011;44792;52.760;6.726;2023-08-07T07:49:09;8.50;;;2.60;;
59006;SDS011;44792;52.760;6.726;2023-08-07T07:51:40;10.38;;;2.70;;
59006;SDS011;44792;52.760;6.726;2023-08-07T07:54:06;9.10;;;1.92;;
59006;SDS011;44792;52.760;6.726;2023-08-07T07:56:31;7.63;;;2.42;;
59006;SDS011;44792;52.760;6.726;2023-08-07T07:58:57;4.53;;;1.80;;
59006;SDS011;44792;52.760;6.726;2023-08-07T08:01:23;10.65;;;1.98;;
59006;SDS011;44792;52.760;6.726;2023-08-07T08:03:49;8.25;;;2.05;;
59006;SDS011;44792;52.760;6.726;2023-08-07T08:06:14;9.98;;;1.80;;
59006;SDS011;44792;52.760;6.726;2023-08-07T08:08:40;3.33;;;1.45;;
59006;SDS011;44792;52.760;6.726;2023-08-07T08:11:07;3.17;;;1.60;;
59006;SDS011;44792;52.760;6.726;2023-08-07T08:13:33;2.72;;;1.08;;
59006;SDS011;44792;52.760;6.726;2023-08-07T08:16:00;5.03;;;1.15;;
59006;SDS011;44792;52.760;6.726;2023-08-07T08:18:26;3.65;;;1.23;;
59006;SDS011;44792;52.760;6.726;2023-08-07T08:20:53;3.38;;;1.30;;
59006;SDS011;44792;52.760;6.726;2023-08-07T08:23:19;5.57;;;1.58;;
59006;SDS011;44792;52.760;6.726;2023-08-07T08:25:45;2.80;;;1.35;;
59006;SDS011;44792;52.760;6.726;2023-08-07T08:28:10;5.07;;;1.50;;
59006;SDS011;44792;52.760;6.726;2023-08-07T08:30:36;5.65;;;1.60;;
59006;SDS011;44792;52.760;6.726;2023-08-07T08:33:02;4.47;;;1.27;;
59006;SDS011;44792;52.760;6.726;2023-08-07T08:35:28;5.18;;;1.92;;
59006;SDS011;44792;52.760;6.726;2023-08-07T08:37:54;4.73;;;1.70;;
59006;SDS011;44792;52.760;6.726;2023-08-07T08:40:19;6.00;;;1.65;;
59006;SDS011;44792;52.760;6.726;2023-08-07T08:42:46;9.60;;;1.80;;
59006;SDS011;44792;52.760;6.726;2023-08-07T08:45:15;6.78;;;1.48;;
59006;SDS011;44792;52.760;6.726;2023-08-07T08:47:41;10.45;;;1.80;;
59006;SDS011;44792;52.760;6.726;2023-08-07T08:50:09;6.80;;;2.20;;
59006;SDS011;44792;52.760;6.726;2023-08-07T08:52:40;4.90;;;1.80;;
59006;SDS011;44792;52.760;6.726;2023-08-07T08:55:07;10.73;;;2.38;;
59006;SDS011;44792;52.760;6.726;2023-08-07T08:57:34;7.88;;;2.40;;
59006;SDS011;44792;52.760;6.726;2023-08-07T09:00:00;5.72;;;2.00;;
59006;SDS011;44792;52.760;6.726;2023-08-07T09:02:32;5.10;;;1.90;;
59006;SDS011;44792;52.760;6.726;2023-08-07T09:04:58;6.25;;;1.90;;
59006;SDS011;44792;52.760;6.726;2023-08-07T09:07:24;6.43;;;2.40;;
59006;SDS011;44792;52.760;6.726;2023-08-07T09:09:51;16.50;;;2.45;;
59006;SDS011;44792;52.760;6.726;2023-08-07T09:12:23;4.30;;;2.10;;
59006;SDS011;44792;52.760;6.726;2023-08-07T09:14:53;7.20;;;2.30;;
59006;SDS011;44792;52.760;6.726;2023-08-07T09:17:27;8.73;;;2.65;;
59006;SDS011;44792;52.760;6.726;2023-08-07T09:19:56;6.68;;;2.40;;
59006;SDS011;44792;52.760;6.726;2023-08-07T09:22:23;11.52;;;2.88;;
59006;SDS011;44792;52.760;6.726;2023-08-07T09:24:49;11.20;;;2.45;;
59006;SDS011;44792;52.760;6.726;2023-08-07T09:27:15;9.77;;;2.40;;
59006;SDS011;44792;52.760;6.726;2023-08-07T09:29:44;14.77;;;2.60;;
59006;SDS011;44792;52.760;6.726;2023-08-07T09:32:12;10.75;;;2.60;;
59006;SDS011;44792;52.760;6.726;2023-08-07T09:34:41;9.15;;;2.55;;
59006;SDS011;44792;52.760;6.726;2023-08-07T09:37:09;9.00;;;2.83;;
59006;SDS011;44792;52.760;6.726;2023-08-07T09:39:36;7.55;;;2.72;;
59006;SDS011;44792;52.760;6.726;2023-08-07T09:42:03;8.13;;;2.60;;
59006;SDS011;44792;52.760;6.726;2023-08-07T09:44:35;10.60;;;2.78;;
59006;SDS011;44792;52.760;6.726;2023-08-07T09:47:10;8.90;;;3.05;;
59006;SDS011;44792;52.760;6.726;2023-08-07T09:49:38;9.93;;;2.40;;
59006;SDS011;44792;52.760;6.726;2023-08-07T09:52:05;7.13;;;2.35;;
59006;SDS011;44792;52.760;6.726;2023-08-07T09:54:35;8.88;;;2.80;;
59006;SDS011;44792;52.760;6.726;2023-08-07T09:57:06;13.40;;;2.60;;
59006;SDS011;44792;52.760;6.726;2023-08-07T09:59:32;8.50;;;2.08;;
59006;SDS011;44792;52.760;6.726;2023-08-07T10:02:00;7.93;;;2.40;;
59006;SDS011;44792;52.760;6.726;2023-08-07T10:04:30;5.70;;;1.67;;
59006;SDS011;44792;52.760;6.726;2023-08-07T10:06:56;7.50;;;2.10;;
59006;SDS011;44792;52.760;6.726;2023-08-07T10:09:23;5.85;;;1.90;;
59006;SDS011;44792;52.760;6.726;2023-08-07T10:11:51;5.68;;;2.10;;
59006;SDS011;44792;52.760;6.726;2023-08-07T10:14:17;8.55;;;2.78;;
59006;SDS011;44792;52.760;6.726;2023-08-07T10:16:43;5.38;;;2.10;;
59006;SDS011;44792;52.760;6.726;2023-08-07T10:19:11;6.70;;;2.67;;
59006;SDS011;44792;52.760;6.726;2023-08-07T10:21:38;10.15;;;2.15;;
59006;SDS011;44792;52.760;6.726;2023-08-07T10:24:04;4.57;;;2.03;;
59006;SDS011;44792;52.760;6.726;2023-08-07T10:26:32;9.00;;;1.92;;
59006;SDS011;44792;52.760;6.726;2023-08-07T10:29:02;7.07;;;1.83;;
59006;SDS011;44792;52.760;6.726;2023-08-07T10:31:31;5.70;;;2.58;;
59006;SDS011;44792;52.760;6.726;2023-08-07T10:34:00;11.32;;;2.30;;
59006;SDS011;44792;52.760;6.726;2023-08-07T10:36:33;7.32;;;2.45;;
59006;SDS011;44792;52.760;6.726;2023-08-07T10:41:41;5.85;;;2.17;;
59006;SDS011;44792;52.760;6.726;2023-08-07T10:44:19;10.70;;;2.20;;
59006;SDS011;44792;52.760;6.726;2023-08-07T10:46:49;6.40;;;2.22;;
59006;SDS011;44792;52.760;6.726;2023-08-07T10:49:32;8.10;;;2.60;;
59006;SDS011;44792;52.760;6.726;2023-08-07T10:52:01;6.18;;;1.80;;
59006;SDS011;44792;52.760;6.726;2023-08-07T10:54:38;6.57;;;2.00;;
59006;SDS011;44792;52.760;6.726;2023-08-07T10:57:14;8.13;;;2.30;;
59006;SDS011;44792;52.760;6.726;2023-08-07T11:00:23;5.25;;;1.85;;
59006;SDS011;44792;52.760;6.726;2023-08-07T11:02:31;5.93;;;2.30;;
59006;SDS011;44792;52.760;6.726;2023-08-07T11:04:58;4.15;;;2.25;;
59006;SDS011;44792;52.760;6.726;2023-08-07T11:07:24;11.10;;;2.45;;
59006;SDS011;44792;52.760;6.726;2023-08-07T11:09:52;8.57;;;2.17;;
59006;SDS011;44792;52.760;6.726;2023-08-07T11:12:19;6.95;;;2.25;;
59006;SDS011;44792;52.760;6.726;2023-08-07T11:14:45;7.25;;;2.20;;
59006;SDS011;44792;52.760;6.726;2023-08-07T11:17:12;5.72;;;2.25;;
59006;SDS011;44792;52.760;6.726;2023-08-07T11:19:38;9.73;;;2.50;;
59006;SDS011;44792;52.760;6.726;2023-08-07T11:22:04;7.40;;;2.15;;
59006;SDS011;44792;52.760;6.726;2023-08-07T11:24:30;10.40;;;1.80;;
59006;SDS011;44792;52.760;6.726;2023-08-07T11:26:56;8.20;;;2.15;;
59006;SDS011;44792;52.760;6.726;2023-08-07T11:29:22;13.45;;;2.80;;
59006;SDS011;44792;52.760;6.726;2023-08-07T11:31:56;7.35;;;2.30;;
59006;SDS011;44792;52.760;6.726;2023-08-07T11:34:21;9.15;;;2.33;;
59006;SDS011;44792;52.760;6.726;2023-08-07T11:36:47;7.25;;;2.35;;
59006;SDS011;44792;52.760;6.726;2023-08-07T11:39:13;8.95;;;1.90;;
59006;SDS011;44792;52.760;6.726;2023-08-07T11:41:39;6.85;;;2.33;;
59006;SDS011;44792;52.760;6.726;2023-08-07T11:44:09;9.75;;;2.58;;
59006;SDS011;44792;52.760;6.726;2023-08-07T11:46:35;3.80;;;1.70;;
59006;SDS011;44792;52.760;6.726;2023-08-07T11:49:01;7.22;;;1.60;;
59006;SDS011;44792;52.760;6.726;2023-08-07T11:51:29;5.95;;;2.05;;
59006;SDS011;44792;52.760;6.726;2023-08-07T11:53:55;4.68;;;2.03;;
59006;SDS011;44792;52.760;6.726;2023-08-07T11:56:23;3.50;;;1.40;;
59006;SDS011;44792;52.760;6.726;2023-08-07T11:58:50;3.35;;;1.65;;
59006;SDS011;44792;52.760;6.726;2023-08-07T12:01:18;5.05;;;1.60;;
59006;SDS011;44792;52.760;6.726;2023-08-07T12:04:08;6.43;;;1.88;;
59006;SDS011;44792;52.760;6.726;2023-08-07T12:06:35;4.57;;;1.30;;
59006;SDS011;44792;52.760;6.726;2023-08-07T12:09:04;6.00;;;1.88;;
59006;SDS011;44792;52.760;6.726;2023-08-07T12:11:36;5.47;;;1.85;;
59006;SDS011;44792;52.760;6.726;2023-08-07T12:14:04;4.13;;;1.60;;
59006;SDS011;44792;52.760;6.726;2023-08-07T12:16:34;4.85;;;1.45;;
59006;SDS011;44792;52.760;6.726;2023-08-07T12:19:00;5.03;;;1.58;;
59006;SDS011;44792;52.760;6.726;2023-08-07T12:21:27;4.00;;;1.88;;
59006;SDS011;44792;52.760;6.726;2023-08-07T12:23:56;4.90;;;1.80;;
59006;SDS011;44792;52.760;6.726;2023-08-07T12:26:22;10.18;;;2.00;;
59006;SDS011;44792;52.760;6.726;2023-08-07T12:28:48;5.63;;;1.90;;
59006;SDS011;44792;52.760;6.726;2023-08-07T12:31:14;4.65;;;1.73;;
59006;SDS011;44792;52.760;6.726;2023-08-07T12:33:42;2.72;;;1.67;;
59006;SDS011;44792;52.760;6.726;2023-08-07T12:36:08;7.95;;;1.92;;
59006;SDS011;44792;52.760;6.726;2023-08-07T12:38:35;5.15;;;1.92;;
59006;SDS011;44792;52.760;6.726;2023-08-07T12:41:01;3.53;;;1.67;;
59006;SDS011;44792;52.760;6.726;2023-08-07T12:43:28;8.23;;;1.90;;
59006;SDS011;44792;52.760;6.726;2023-08-07T12:45:54;6.60;;;2.08;;
59006;SDS011;44792;52.760;6.726;2023-08-07T12:48:20;6.22;;;1.90;;
59006;SDS011;44792;52.760;6.726;2023-08-07T12:50:45;4.70;;;1.75;;
59006;SDS011;44792;52.760;6.726;2023-08-07T12:53:11;3.45;;;1.58;;
59006;SDS011;44792;52.760;6.726;2023-08-07T12:55:37;9.38;;;1.80;;
59006;SDS011;44792;52.760;6.726;2023-08-07T12:58:03;8.60;;;2.17;;
59006;SDS011;44792;52.760;6.726;2023-08-07T13:00:28;5.28;;;2.00;;
59006;SDS011;44792;52.760;6.726;2023-08-07T13:02:54;5.72;;;2.05;;
59006;SDS011;44792;52.760;6.726;2023-08-07T13:05:27;7.55;;;2.13;;
59006;SDS011;44792;52.760;6.726;2023-08-07T13:07:54;3.00;;;1.70;;
59006;SDS011;44792;52.760;6.726;2023-08-07T13:10:23;6.88;;;2.25;;
59006;SDS011;44792;52.760;6.726;2023-08-07T13:12:49;3.38;;;1.73;;
59006;SDS011;44792;52.760;6.726;2023-08-07T13:15:18;5.55;;;2.00;;
59006;SDS011;44792;52.760;6.726;2023-08-07T13:17:44;5.65;;;2.10;;
59006;SDS011;44792;52.760;6.726;2023-08-07T13:20:11;3.22;;;1.40;;
59006;SDS011;44792;52.760;6.726;2023-08-07T13:22:38;8.75;;;2.13;;
59006;SDS011;44792;52.760;6.726;2023-08-07T13:25:06;3.70;;;1.60;;
59006;SDS011;44792;52.760;6.726;2023-08-07T13:27:32;3.92;;;1.60;;
59006;SDS011;44792;52.760;6.726;2023-08-07T13:29:59;2.65;;;1.70;;
59006;SDS011;44792;52.760;6.726;2023-08-07T13:32:26;4.50;;;1.83;;
59006;SDS011;44792;52.760;6.726;2023-08-07T13:34:52;5.55;;;1.98;;
59006;SDS011;44792;52.760;6.726;2023-08-07T13:37:21;6.70;;;1.65;;
59006;SDS011;44792;52.760;6.726;2023-08-07T13:39:47;4.60;;;1.50;;
59006;SDS011;44792;52.760;6.726;2023-08-07T13:42:14;4.95;;;1.50;;
59006;SDS011;44792;52.760;6.726;2023-08-07T13:44:40;4.50;;;1.80;;
59006;SDS011;44792;52.760;6.726;2023-08-07T13:47:06;3.42;;;1.92;;
59006;SDS011;44792;52.760;6.726;2023-08-07T13:49:32;4.93;;;2.00;;
59006;SDS011;44792;52.760;6.726;2023-08-07T13:51:59;7.70;;;2.42;;
59006;SDS011;44792;52.760;6.726;2023-08-07T13:54:25;6.40;;;2.35;;
59006;SDS011;44792;52.760;6.726;2023-08-07T13:56:50;6.57;;;2.40;;
59006;SDS011;44792;52.760;6.726;2023-08-07T13:59:16;7.60;;;2.25;;
59006;SDS011;44792;52.760;6.726;2023-08-07T14:01:42;3.85;;;2.13;;
59006;SDS011;44792;52.760;6.726;2023-08-07T14:04:08;4.38;;;1.98;;
59006;SDS011;44792;52.760;6.726;2023-08-07T14:06:33;4.82;;;1.85;;
59006;SDS011;44792;52.760;6.726;2023-08-07T14:08:59;3.03;;;1.95;;
59006;SDS011;44792;52.760;6.726;2023-08-07T14:11:25;4.82;;;1.75;;
59006;SDS011;44792;52.760;6.726;2023-08-07T14:13:58;5.97;;;2.85;;
59006;SDS011;44792;52.760;6.726;2023-08-07T14:16:26;7.57;;;2.50;;
59006;SDS011;44792;52.760;6.726;2023-08-07T14:18:56;4.72;;;2.10;;
59006;SDS011;44792;52.760;6.726;2023-08-07T14:21:22;6.13;;;2.20;;
59006;SDS011;44792;52.760;6.726;2023-08-07T14:23:51;8.50;;;2.60;;
59006;SDS011;44792;52.760;6.726;2023-08-07T14:26:16;5.53;;;2.85;;
59006;SDS011;44792;52.760;6.726;2023-08-07T14:28:43;5.68;;;2.30;;
59006;SDS011;44792;52.760;6.726;2023-08-07T14:31:09;6.60;;;2.70;;
59006;SDS011;44792;52.760;6.726;2023-08-07T14:33:35;9.48;;;2.58;;
59006;SDS011;44792;52.760;6.726;2023-08-07T14:36:02;7.15;;;2.63;;
59006;SDS011;44792;52.760;6.726;2023-08-07T14:38:28;7.63;;;2.83;;
59006;SDS011;44792;52.760;6.726;2023-08-07T14:40:55;7.30;;;2.28;;
59006;SDS011;44792;52.760;6.726;2023-08-07T14:43:21;6.60;;;2.42;;
59006;SDS011;44792;52.760;6.726;2023-08-07T14:45:47;5.53;;;2.40;;
59006;SDS011;44792;52.760;6.726;2023-08-07T14:48:13;7.63;;;2.10;;
59006;SDS011;44792;52.760;6.726;2023-08-07T14:50:40;7.72;;;2.72;;